Time;durP1;ratioP1;P1;durP2;ratioP2;P2;SDS_P1;SDS_P2;PMS_P1;PMS_P2;Temp;Humidity;BMP_temperature;BMP_pressure;BME280_temperature;BME280_humidity;BME280_pressure;Samples;Min_cycle;Max_cycle;Signal;HPM_P1;HPM_P2
2022/03/11 00:02:21;;;;;;;40.03;24.88;;;8.90;50.50;;;;;;4960979;28;20156;-73
2022/03/11 00:04:47;;;;;;;39.33;25.00;;;8.90;50.30;;;;;;4956805;28;20034;-74
2022/03/11 00:07:14;;;;;;;42.13;24.58;;;8.90;50.10;;;;;;4959223;28;20059;-76
2022/03/11 00:09:41;;;;;;;36.85;23.90;;;8.90;50.10;;;;;;4956102;28;20105;-74
2022/03/11 00:12:08;;;;;;;41.17;24.85;;;8.90;49.60;;;;;;4961523;28;20480;-78
2022/03/11 00:14:34;;;;;;;39.17;24.45;;;8.90;50.00;;;;;;4957070;28;20478;-77
2022/03/11 00:17:00;;;;;;;35.38;22.67;;;8.90;49.50;;;;;;4958026;28;20542;-73
2022/03/11 00:19:26;;;;;;;34.65;22.85;;;9.00;49.20;;;;;;4972278;28;20150;-76
2022/03/11 00:21:52;;;;;;;34.28;22.33;;;9.00;49.10;;;;;;4961524;28;20058;-75
2022/03/11 00:24:18;;;;;;;35.85;22.35;;;9.10;49.00;;;;;;4958079;28;20172;-73
2022/03/11 00:26:44;;;;;;;36.47;22.65;;;9.10;48.50;;;;;;4961784;28;20382;-75
2022/03/11 00:29:09;;;;;;;35.25;21.98;;;9.10;48.50;;;;;;4953208;28;20047;-77
2022/03/11 00:31:35;;;;;;;31.55;21.30;;;9.10;48.20;;;;;;4967113;28;20043;-72
2022/03/11 00:34:01;;;;;;;33.95;22.17;;;9.10;48.20;;;;;;4950318;28;20562;-72
2022/03/11 00:36:27;;;;;;;31.90;20.83;;;9.10;48.20;;;;;;4952307;28;20288;-72
2022/03/11 00:38:53;;;;;;;31.65;20.67;;;9.10;47.70;;;;;;4951162;28;20707;-75
2022/03/11 00:41:19;;;;;;;30.65;20.73;;;9.10;48.00;;;;;;4954836;28;21039;-77
2022/03/11 00:43:45;;;;;;;30.42;19.85;;;9.10;48.10;;;;;;4953225;28;20035;-75
2022/03/11 00:46:10;;;;;;;29.95;19.25;;;9.10;47.70;;;;;;4958301;28;20254;-73
2022/03/11 00:48:36;;;;;;;29.63;18.75;;;9.10;48.00;;;;;;4968850;28;20034;-78
2022/03/11 00:51:02;;;;;;;31.63;19.85;;;9.10;47.90;;;;;;4956267;28;20038;-74
2022/03/11 00:53:28;;;;;;;30.77;19.48;;;9.10;48.00;;;;;;4960557;28;20047;-75
2022/03/11 00:55:55;;;;;;;31.15;19.25;;;9.10;47.60;;;;;;4963145;28;20438;-75
2022/03/11 00:58:21;;;;;;;32.25;19.35;;;9.10;47.80;;;;;;4959984;28;20526;-79
2022/03/11 01:00:46;;;;;;;30.55;19.38;;;9.10;47.70;;;;;;4953945;28;20074;-72
2022/03/11 01:03:12;;;;;;;31.38;19.40;;;9.10;47.70;;;;;;4961207;28;20555;-73
2022/03/11 01:05:38;;;;;;;31.25;19.33;;;9.00;47.90;;;;;;4963099;28;20057;-73
2022/03/11 01:08:04;;;;;;;30.45;18.33;;;9.00;47.90;;;;;;4959971;28;20463;-77
2022/03/11 01:10:30;;;;;;;31.20;18.88;;;9.00;48.30;;;;;;4963959;28;20042;-77
2022/03/11 01:12:56;;;;;;;28.98;17.95;;;8.90;48.30;;;;;;4958124;28;20384;-76
2022/03/11 01:15:23;;;;;;;29.23;18.02;;;8.90;48.10;;;;;;4962142;28;20042;-76
2022/03/11 01:17:48;;;;;;;28.70;18.40;;;8.90;48.20;;;;;;4965115;28;20127;-73
2022/03/11 01:20:14;;;;;;;27.42;17.70;;;8.90;48.20;;;;;;4957708;28;20130;-74
2022/03/11 01:22:40;;;;;;;27.75;17.05;;;8.90;48.20;;;;;;4960191;28;20123;-74
2022/03/11 01:25:07;;;;;;;28.25;17.52;;;8.90;48.50;;;;;;4962318;28;20129;-74
2022/03/11 01:27:33;;;;;;;29.20;17.58;;;8.80;48.70;;;;;;4964883;28;20600;-75
2022/03/11 01:29:59;;;;;;;27.08;17.38;;;8.80;48.70;;;;;;4961140;28;20043;-74
2022/03/11 01:32:25;;;;;;;26.80;17.00;;;8.70;48.70;;;;;;4962401;28;20039;-74
2022/03/11 01:34:51;;;;;;;25.92;16.20;;;8.70;48.90;;;;;;4969775;28;20060;-79
2022/03/11 01:37:16;;;;;;;33.83;18.00;;;8.60;49.00;;;;;;4989943;28;20039;-79
2022/03/11 01:39:42;;;;;;;25.80;16.45;;;8.60;49.10;;;;;;4984189;28;20047;-77
2022/03/11 01:42:09;;;;;;;27.27;16.58;;;8.60;49.40;;;;;;4975265;28;20088;-76
2022/03/11 01:44:35;;;;;;;25.27;16.45;;;8.60;49.10;;;;;;4962946;28;20393;-75
2022/03/11 01:47:01;;;;;;;25.70;16.15;;;8.60;49.40;;;;;;4962768;28;20039;-76
2022/03/11 01:49:26;;;;;;;27.88;16.55;;;8.60;49.40;;;;;;4959767;28;20162;-75
2022/03/11 01:51:52;;;;;;;27.00;16.02;;;8.60;49.50;;;;;;4974307;28;20034;-78
2022/03/11 01:54:18;;;;;;;26.70;16.85;;;8.50;49.60;;;;;;4963724;28;20078;-72
2022/03/11 01:56:44;;;;;;;26.65;15.52;;;8.50;49.70;;;;;;4956939;28;20114;-75
2022/03/11 01:59:11;;;;;;;25.00;16.63;;;8.50;49.70;;;;;;4967494;28;20058;-77
2022/03/11 02:01:37;;;;;;;26.27;15.85;;;8.50;49.60;;;;;;4962667;28;20034;-77
2022/03/11 02:04:03;;;;;;;24.45;15.60;;;8.50;49.70;;;;;;4967228;28;20485;-74
2022/03/11 02:06:29;;;;;;;26.08;15.70;;;8.40;49.60;;;;;;4967796;28;20038;-75
2022/03/11 02:08:55;;;;;;;24.40;16.08;;;8.40;49.80;;;;;;4958144;28;20276;-73
2022/03/11 02:11:21;;;;;;;23.95;15.75;;;8.40;49.80;;;;;;4972585;28;20070;-76
2022/03/11 02:13:49;;;;;;;28.05;16.60;;;8.40;49.80;;;;;;4956902;28;20753;-73
2022/03/11 02:16:40;;;;;;;24.25;16.48;;;8.30;50.10;;;;;;4960086;28;20198;-74
2022/03/11 02:19:06;;;;;;;24.65;15.63;;;8.40;49.90;;;;;;4964328;28;20119;-79
2022/03/11 02:21:38;;;;;;;22.02;15.05;;;8.30;50.30;;;;;;4955744;28;20045;-75
2022/03/11 02:24:05;;;;;;;26.92;15.88;;;8.30;50.40;;;;;;4962802;28;20084;-79
2022/03/11 02:26:31;;;;;;;25.00;15.63;;;8.20;50.50;;;;;;4955003;28;20471;-72
2022/03/11 02:28:59;;;;;;;26.20;15.60;;;8.20;50.60;;;;;;4961317;28;20058;-72
2022/03/11 02:31:27;;;;;;;29.50;15.93;;;8.20;51.00;;;;;;4961436;28;20061;-75
2022/03/11 02:33:53;;;;;;;27.02;15.23;;;8.10;50.90;;;;;;4959791;28;20123;-75
2022/03/11 02:36:19;;;;;;;23.67;15.30;;;8.10;51.30;;;;;;4961312;28;20831;-77
2022/03/11 02:38:45;;;;;;;23.38;15.35;;;8.10;51.60;;;;;;4953064;28;20487;-76
2022/03/11 02:41:11;;;;;;;28.27;16.75;;;8.00;51.80;;;;;;4970195;28;20490;-75
2022/03/11 02:43:38;;;;;;;26.70;16.75;;;7.90;52.10;;;;;;4942112;28;20035;-76
2022/03/11 02:46:04;;;;;;;25.83;16.20;;;7.80;52.60;;;;;;4952171;28;20047;-75
2022/03/11 02:48:30;;;;;;;24.40;16.33;;;7.70;53.10;;;;;;4948430;28;20046;-79
2022/03/11 02:50:56;;;;;;;24.67;16.08;;;7.60;53.90;;;;;;4958040;28;20050;-73
2022/03/11 02:53:22;;;;;;;27.35;15.63;;;7.40;54.30;;;;;;4959504;28;20095;-76
2022/03/11 02:55:48;;;;;;;25.45;16.73;;;7.40;54.50;;;;;;4963161;28;20039;-75
2022/03/11 02:58:14;;;;;;;23.38;16.02;;;7.30;54.70;;;;;;4972944;28;20482;-78
2022/03/11 03:00:39;;;;;;;25.50;16.30;;;7.20;54.90;;;;;;4959877;28;20744;-78
2022/03/11 03:03:05;;;;;;;24.85;15.93;;;7.10;55.10;;;;;;4960181;28;20550;-78
2022/03/11 03:05:31;;;;;;;27.10;16.85;;;7.10;55.20;;;;;;4971037;28;20038;-75
2022/03/11 03:07:57;;;;;;;24.58;15.68;;;7.10;55.60;;;;;;4966255;28;20038;-75
2022/03/11 03:10:23;;;;;;;25.73;16.02;;;7.00;55.70;;;;;;4960806;28;20049;-74
2022/03/11 03:12:49;;;;;;;24.15;16.23;;;6.90;56.40;;;;;;4957782;28;20047;-79
2022/03/11 03:15:15;;;;;;;24.27;15.52;;;6.80;56.60;;;;;;4955669;28;20046;-74
2022/03/11 03:17:41;;;;;;;25.35;16.80;;;6.70;57.30;;;;;;4957568;28;20070;-77
2022/03/11 03:20:08;;;;;;;27.58;16.85;;;6.60;57.60;;;;;;4955585;28;20050;-80
2022/03/11 03:22:35;;;;;;;26.60;16.08;;;6.60;57.60;;;;;;4960131;28;20046;-79
2022/03/11 03:25:02;;;;;;;22.98;15.02;;;6.60;57.50;;;;;;4962840;28;20508;-75
2022/03/11 03:27:28;;;;;;;27.20;16.55;;;6.60;57.60;;;;;;4969832;28;20038;-75
2022/03/11 03:29:54;;;;;;;24.42;15.23;;;6.50;58.20;;;;;;4952164;28;20043;-75
2022/03/11 03:32:20;;;;;;;23.40;15.40;;;6.50;58.00;;;;;;4956513;28;20086;-78
2022/03/11 03:34:46;;;;;;;24.52;15.15;;;6.40;58.40;;;;;;4956624;28;20454;-76
2022/03/11 03:37:12;;;;;;;25.75;16.13;;;6.40;58.40;;;;;;4957219;28;20406;-76
2022/03/11 03:39:39;;;;;;;24.30;14.88;;;6.40;58.50;;;;;;4967702;28;20050;-73
2022/03/11 03:42:05;;;;;;;23.35;14.88;;;6.30;58.60;;;;;;4991247;28;20129;-77
2022/03/11 03:44:32;;;;;;;22.48;14.85;;;6.30;59.00;;;;;;4964244;28;20051;-77
2022/03/11 03:46:58;;;;;;;21.77;14.85;;;6.20;59.00;;;;;;4966512;28;20567;-74
2022/03/11 03:49:23;;;;;;;20.38;14.43;;;6.20;59.10;;;;;;4985458;28;20054;-75
2022/03/11 03:51:49;;;;;;;24.40;15.75;;;6.20;58.80;;;;;;4958952;28;20512;-72
2022/03/11 03:54:17;;;;;;;26.02;16.23;;;6.20;58.90;;;;;;4954936;28;20070;-75
2022/03/11 03:56:44;;;;;;;25.33;16.42;;;6.20;59.00;;;;;;4970298;28;20034;-75
2022/03/11 03:59:10;;;;;;;26.92;19.10;;;6.20;59.00;;;;;;4967698;28;20050;-75
2022/03/11 04:01:39;;;;;;;31.95;22.00;;;6.20;58.90;;;;;;4959572;28;20035;-73
2022/03/11 04:04:05;;;;;;;35.42;22.98;;;6.10;59.10;;;;;;4965752;28;20042;-72
2022/03/11 04:06:35;;;;;;;36.63;24.60;;;6.10;59.20;;;;;;4961157;28;20043;-75
2022/03/11 04:09:03;;;;;;;36.08;24.73;;;6.10;59.30;;;;;;4965050;28;20042;-74
2022/03/11 04:11:29;;;;;;;37.45;23.67;;;6.10;59.80;;;;;;4958472;28;20049;-75
2022/03/11 04:13:56;;;;;;;35.50;22.73;;;6.10;59.80;;;;;;4956301;28;20117;-74
2022/03/11 04:16:22;;;;;;;35.10;22.05;;;6.10;59.70;;;;;;4957223;28;20108;-75
2022/03/11 04:18:49;;;;;;;32.05;21.75;;;6.00;59.70;;;;;;4964678;28;20046;-75
2022/03/11 04:21:15;;;;;;;30.98;20.77;;;6.00;60.10;;;;;;4963224;28;20458;-79
2022/03/11 04:23:42;;;;;;;28.10;19.60;;;6.00;60.10;;;;;;4956158;28;20039;-75
2022/03/11 04:26:09;;;;;;;29.15;18.67;;;6.00;60.10;;;;;;4963306;28;20038;-74
2022/03/11 04:28:36;;;;;;;28.48;17.25;;;6.00;60.20;;;;;;4953419;28;20035;-77
2022/03/11 04:31:03;;;;;;;25.80;14.57;;;6.00;60.00;;;;;;4955010;28;20446;-75
2022/03/11 04:33:29;;;;;;;23.92;15.23;;;6.00;60.00;;;;;;4964081;28;20034;-73
2022/03/11 04:35:55;;;;;;;24.40;15.07;;;6.10;60.00;;;;;;4973302;28;20035;-76
2022/03/11 04:38:20;;;;;;;22.58;14.57;;;6.10;59.90;;;;;;4961375;28;20209;-75
2022/03/11 04:40:46;;;;;;;26.25;14.38;;;6.10;59.70;;;;;;4963139;28;20031;-76
2022/03/11 04:43:11;;;;;;;22.95;14.65;;;6.20;59.80;;;;;;4965709;28;20270;-75
2022/03/11 04:45:37;;;;;;;23.58;14.27;;;6.20;59.90;;;;;;4970586;28;20482;-73
2022/03/11 04:48:04;;;;;;;24.30;14.15;;;6.30;59.70;;;;;;4960329;28;20074;-75
2022/03/11 04:50:29;;;;;;;23.20;13.90;;;6.40;59.70;;;;;;4962648;28;20039;-72
2022/03/11 04:52:55;;;;;;;22.73;13.70;;;6.40;59.70;;;;;;4966772;28;20043;-76
2022/03/11 04:55:22;;;;;;;20.98;13.55;;;6.40;59.60;;;;;;4970211;28;20084;-75
2022/03/11 04:57:47;;;;;;;22.60;13.85;;;6.40;59.80;;;;;;4955096;28;20047;-74
2022/03/11 05:00:14;;;;;;;22.27;13.85;;;6.40;59.80;;;;;;4958762;28;20497;-76
2022/03/11 05:02:45;;;;;;;21.63;13.90;;;6.40;59.80;;;;;;4963680;28;20100;-73
2022/03/11 05:05:15;;;;;;;24.60;15.77;;;6.40;60.10;;;;;;4967370;28;20039;-76
2022/03/11 05:07:41;;;;;;;24.23;14.82;;;6.40;60.10;;;;;;4963078;28;20542;-75
2022/03/11 05:10:09;;;;;;;26.92;14.90;;;6.40;60.20;;;;;;4974900;28;20047;-75
2022/03/11 05:12:35;;;;;;;26.08;15.60;;;6.40;60.30;;;;;;4961439;28;20490;-74
2022/03/11 05:15:02;;;;;;;23.63;14.65;;;6.40;60.40;;;;;;4971708;28;20518;-74
2022/03/11 05:17:28;;;;;;;26.23;15.47;;;6.50;60.40;;;;;;4963038;28;20043;-75
2022/03/11 05:19:53;;;;;;;23.08;14.27;;;6.50;60.80;;;;;;4963235;28;20097;-75
2022/03/11 05:22:20;;;;;;;25.23;15.05;;;6.60;60.60;;;;;;4960027;28;20146;-75
2022/03/11 05:24:46;;;;;;;25.13;15.57;;;6.60;60.60;;;;;;4963953;28;20076;-72
2022/03/11 05:27:12;;;;;;;24.58;15.23;;;6.70;60.60;;;;;;4961299;28;20042;-73
2022/03/11 05:29:40;;;;;;;28.08;15.52;;;6.70;60.70;;;;;;4955469;28;20035;-74
2022/03/11 05:32:06;;;;;;;27.20;15.65;;;6.70;60.70;;;;;;4956983;28;20134;-73
2022/03/11 05:34:31;;;;;;;24.95;15.23;;;6.70;60.80;;;;;;4957361;28;20046;-76
2022/03/11 05:36:57;;;;;;;24.83;15.80;;;6.70;61.00;;;;;;4951264;28;20379;-77
2022/03/11 05:39:23;;;;;;;28.00;16.63;;;6.80;61.00;;;;;;4959643;28;20049;-75
2022/03/11 05:41:49;;;;;;;30.33;17.15;;;6.80;60.80;;;;;;4957355;28;20035;-78
2022/03/11 05:44:17;;;;;;;37.05;20.50;;;6.80;60.90;;;;;;4962986;28;20133;-75
2022/03/11 05:46:44;;;;;;;37.75;22.42;;;6.80;61.20;;;;;;4959517;28;20547;-74
2022/03/11 05:49:10;;;;;;;31.33;19.35;;;6.80;61.20;;;;;;4955958;28;20027;-74
2022/03/11 05:51:36;;;;;;;29.80;18.25;;;6.80;61.50;;;;;;4951685;28;20490;-75
2022/03/11 05:54:02;;;;;;;24.98;16.10;;;6.70;61.70;;;;;;4961257;28;20038;-75
2022/03/11 05:56:27;;;;;;;26.63;15.52;;;6.60;61.70;;;;;;4958055;28;20037;-74
2022/03/11 05:58:53;;;;;;;28.60;15.63;;;6.40;62.00;;;;;;4970703;28;20054;-77
2022/03/11 06:01:19;;;;;;;23.67;13.88;;;6.30;62.50;;;;;;4984723;28;20034;-79
2022/03/11 06:03:47;;;;;;;23.00;14.43;;;6.20;62.90;;;;;;4977936;28;20067;-74
2022/03/11 06:06:16;;;;;;;22.70;13.57;;;6.10;63.20;;;;;;4958256;28;20474;-75
2022/03/11 06:08:43;;;;;;;27.02;15.38;;;5.90;63.80;;;;;;4952240;28;20158;-74
2022/03/11 06:11:09;;;;;;;20.67;13.68;;;5.80;64.10;;;;;;4971134;28;20580;-75
2022/03/11 06:13:38;;;;;;;25.35;14.48;;;5.80;64.40;;;;;;4954799;28;20042;-74
2022/03/11 06:16:04;;;;;;;23.55;14.80;;;5.70;64.60;;;;;;4955733;28;20038;-74
2022/03/11 06:18:30;;;;;;;22.02;13.07;;;5.70;64.80;;;;;;4962691;28;20057;-75
2022/03/11 06:20:59;;;;;;;20.65;13.48;;;5.60;65.20;;;;;;4951622;28;20038;-73
2022/03/11 06:23:25;;;;;;;26.02;14.85;;;5.60;65.50;;;;;;4956491;28;20058;-75
2022/03/11 06:25:51;;;;;;;28.20;18.17;;;5.60;65.90;;;;;;4947383;28;20166;-76
2022/03/11 06:28:17;;;;;;;31.65;18.40;;;5.60;66.30;;;;;;4954007;28;20448;-78
2022/03/11 06:30:45;;;;;;;26.58;16.83;;;5.60;66.50;;;;;;4954401;28;20059;-78
2022/03/11 06:33:10;;;;;;;25.38;15.85;;;5.70;67.10;;;;;;4958599;28;20494;-74
2022/03/11 06:35:37;;;;;;;22.23;13.95;;;5.90;67.40;;;;;;4957866;28;20119;-72
2022/03/11 06:38:03;;;;;;;22.98;14.00;;;6.10;67.60;;;;;;4974820;28;20053;-72
2022/03/11 06:40:29;;;;;;;23.35;14.52;;;6.30;67.10;;;;;;4953958;28;20031;-73
2022/03/11 06:42:55;;;;;;;21.17;13.55;;;6.60;66.70;;;;;;4958935;28;20054;-71
2022/03/11 06:45:22;;;;;;;22.50;13.73;;;6.80;66.20;;;;;;4957236;28;20053;-74
2022/03/11 06:47:47;;;;;;;20.58;13.25;;;7.00;65.60;;;;;;4957441;28;20043;-72
2022/03/11 06:50:15;;;;;;;19.95;13.23;;;7.20;65.10;;;;;;4955808;28;20394;-74
2022/03/11 06:52:41;;;;;;;19.55;12.43;;;7.20;64.90;;;;;;4957751;28;20157;-75
2022/03/11 06:55:07;;;;;;;22.70;14.30;;;7.30;64.70;;;;;;4955707;28;20380;-72
2022/03/11 06:57:34;;;;;;;20.80;13.95;;;7.40;64.60;;;;;;4955119;28;20074;-71
2022/03/11 07:00:00;;;;;;;23.38;13.82;;;7.40;64.70;;;;;;4958168;28;20042;-71
2022/03/11 07:02:26;;;;;;;21.00;13.38;;;7.40;64.80;;;;;;4969252;28;20114;-72
2022/03/11 07:04:52;;;;;;;22.73;13.27;;;7.50;64.70;;;;;;4967286;28;20088;-74
2022/03/11 07:07:17;;;;;;;21.50;12.52;;;7.50;64.70;;;;;;4957573;28;20042;-72
2022/03/11 07:09:43;;;;;;;23.10;13.35;;;7.60;64.50;;;;;;4952600;28;20091;-71
2022/03/11 07:12:09;;;;;;;21.70;13.40;;;7.70;64.50;;;;;;4956807;28;20562;-77
2022/03/11 07:14:36;;;;;;;20.58;13.32;;;7.70;64.80;;;;;;4956611;28;20035;-75
2022/03/11 07:17:03;;;;;;;19.38;12.68;;;7.80;64.60;;;;;;4953068;28;20601;-77
2022/03/11 07:19:29;;;;;;;18.27;12.43;;;7.80;64.50;;;;;;4959748;28;20047;-75
2022/03/11 07:21:56;;;;;;;20.98;12.52;;;7.80;64.30;;;;;;4952746;28;20031;-74
2022/03/11 07:24:22;;;;;;;19.45;12.23;;;7.80;64.10;;;;;;4951673;28;20119;-75
2022/03/11 07:26:48;;;;;;;19.38;11.85;;;7.80;64.00;;;;;;4954273;28;20031;-75
2022/03/11 07:29:14;;;;;;;19.60;12.90;;;7.90;64.20;;;;;;4953430;28;20153;-74
2022/03/11 07:31:40;;;;;;;18.77;13.07;;;7.90;64.10;;;;;;4953229;28;20471;-74
2022/03/11 07:34:06;;;;;;;19.98;12.07;;;7.90;64.10;;;;;;4950513;28;20063;-75
2022/03/11 07:36:34;;;;;;;19.58;12.20;;;8.00;64.30;;;;;;4953068;28;20059;-74
2022/03/11 07:39:03;;;;;;;18.92;12.25;;;8.10;64.00;;;;;;4955136;28;20053;-74
2022/03/11 07:41:29;;;;;;;20.52;12.40;;;8.10;64.00;;;;;;4954825;28;20342;-74
2022/03/11 07:43:55;;;;;;;19.83;12.38;;;8.10;64.10;;;;;;4958882;28;20049;-74
2022/03/11 07:46:23;;;;;;;16.85;12.38;;;8.20;64.10;;;;;;4963576;28;20799;-74
2022/03/11 07:48:49;;;;;;;18.73;12.73;;;8.30;64.30;;;;;;4957306;28;20039;-73
2022/03/11 07:51:16;;;;;;;20.60;13.40;;;8.40;64.40;;;;;;4958829;28;20031;-74
2022/03/11 07:53:42;;;;;;;20.77;12.05;;;8.50;64.50;;;;;;4950343;28;20039;-74
2022/03/11 07:56:10;;;;;;;16.95;11.52;;;8.60;64.50;;;;;;4948634;28;20036;-74
2022/03/11 07:58:36;;;;;;;20.08;12.65;;;8.80;63.90;;;;;;4955437;28;20042;-74
2022/03/11 08:01:04;;;;;;;20.42;12.10;;;9.00;63.30;;;;;;4974297;28;20768;-74
2022/03/11 08:03:30;;;;;;;19.23;12.88;;;9.10;63.10;;;;;;4976529;28;20043;-75
2022/03/11 08:05:56;;;;;;;19.77;12.07;;;9.30;63.00;;;;;;4994142;28;20022;-74
2022/03/11 08:08:21;;;;;;;20.67;12.35;;;9.40;63.00;;;;;;4970031;28;20130;-74
2022/03/11 08:10:47;;;;;;;19.77;13.43;;;9.60;62.70;;;;;;4960606;28;20393;-74
2022/03/11 08:13:13;;;;;;;20.38;13.40;;;9.70;62.30;;;;;;4954085;28;20845;-73
2022/03/11 08:15:38;;;;;;;19.17;12.15;;;9.90;62.30;;;;;;4956466;28;20100;-76
2022/03/11 08:18:04;;;;;;;19.75;13.07;;;10.10;61.80;;;;;;4958057;28;20051;-76
2022/03/11 08:20:30;;;;;;;19.23;12.52;;;10.20;61.50;;;;;;4959632;28;20034;-75
2022/03/11 08:22:56;;;;;;;17.60;11.52;;;10.30;60.80;;;;;;4960123;28;20031;-72
2022/03/11 08:25:26;;;;;;;18.40;12.65;;;10.40;60.80;;;;;;4959397;28;20034;-77
2022/03/11 08:27:57;;;;;;;19.88;12.02;;;10.60;60.70;;;;;;4958819;28;20402;-76
2022/03/11 08:30:25;;;;;;;18.13;11.38;;;10.70;60.50;;;;;;4955344;28;20457;-76
2022/03/11 08:32:51;;;;;;;19.23;12.48;;;10.90;60.20;;;;;;4962412;28;20050;-77
2022/03/11 08:35:18;;;;;;;19.08;11.70;;;11.00;59.70;;;;;;4960392;28;20058;-77
2022/03/11 08:37:45;;;;;;;18.33;11.40;;;11.10;59.90;;;;;;4955230;28;20039;-76
2022/03/11 08:40:11;;;;;;;16.48;12.00;;;11.20;59.40;;;;;;4952202;28;20039;-76
2022/03/11 08:42:38;;;;;;;17.23;11.85;;;11.30;59.30;;;;;;4961450;28;20050;-75
2022/03/11 08:45:05;;;;;;;17.48;12.55;;;11.40;60.10;;;;;;4970290;28;20122;-75
2022/03/11 08:47:31;;;;;;;17.15;11.30;;;11.50;59.40;;;;;;4968103;28;20051;-76
2022/03/11 08:49:57;;;;;;;17.58;12.35;;;11.60;59.10;;;;;;4957620;28;20042;-76
2022/03/11 08:52:26;;;;;;;17.05;11.48;;;11.60;59.40;;;;;;4958150;28;20113;-76
2022/03/11 08:54:52;;;;;;;19.00;11.35;;;11.80;59.10;;;;;;4966837;28;20038;-76
2022/03/11 08:57:19;;;;;;;14.95;10.90;;;11.80;59.30;;;;;;4952853;28;20677;-77
2022/03/11 08:59:45;;;;;;;15.95;11.05;;;11.90;58.80;;;;;;4958796;28;20077;-76
2022/03/11 09:02:13;;;;;;;17.38;11.73;;;12.00;59.30;;;;;;4961674;28;20489;-77
2022/03/11 09:04:39;;;;;;;15.50;10.57;;;12.20;58.80;;;;;;4976381;28;20062;-76
2022/03/11 09:07:05;;;;;;;18.08;11.85;;;12.40;57.90;;;;;;4954434;28;20139;-77
2022/03/11 09:09:32;;;;;;;15.48;11.02;;;12.50;58.00;;;;;;4957663;28;20043;-77
2022/03/11 09:11:58;;;;;;;15.63;11.32;;;12.50;58.10;;;;;;4982997;28;20483;-77
2022/03/11 09:14:24;;;;;;;22.05;11.10;;;12.60;57.80;;;;;;4960708;28;20038;-76
2022/03/11 09:16:50;;;;;;;15.10;11.15;;;12.60;58.60;;;;;;4958336;28;20422;-76
2022/03/11 09:19:16;;;;;;;17.02;10.68;;;12.60;57.90;;;;;;4956509;28;20478;-76
2022/03/11 09:21:42;;;;;;;13.90;10.10;;;12.80;58.10;;;;;;4959077;28;20042;-75
2022/03/11 09:24:08;;;;;;;13.75;9.60;;;13.00;57.60;;;;;;4951268;28;20531;-77
2022/03/11 09:26:34;;;;;;;14.63;10.13;;;12.90;57.40;;;;;;4957358;28;20035;-77
2022/03/11 09:29:00;;;;;;;12.77;10.15;;;13.10;56.90;;;;;;4960168;28;20039;-77
2022/03/11 09:31:26;;;;;;;13.27;10.63;;;13.20;56.60;;;;;;4950255;28;20042;-77
2022/03/11 09:33:51;;;;;;;15.25;10.25;;;13.40;56.70;;;;;;4953320;28;20050;-75
2022/03/11 09:36:17;;;;;;;13.27;9.85;;;13.50;56.90;;;;;;4964561;28;20039;-75
2022/03/11 09:38:43;;;;;;;13.48;9.23;;;13.60;56.90;;;;;;4955162;28;20050;-76
2022/03/11 09:41:10;;;;;;;12.65;9.60;;;13.80;56.40;;;;;;4954980;28;20042;-75
2022/03/11 09:43:37;;;;;;;14.25;9.30;;;13.80;56.40;;;;;;4948228;28;20925;-75
2022/03/11 09:46:03;;;;;;;15.13;9.50;;;13.80;55.80;;;;;;4951325;28;20063;-74
2022/03/11 09:48:30;;;;;;;12.48;9.35;;;13.70;56.40;;;;;;4951860;28;20221;-77
2022/03/11 09:50:58;;;;;;;12.63;9.00;;;13.80;57.00;;;;;;4948627;28;20042;-75
2022/03/11 09:53:24;;;;;;;11.65;8.63;;;14.10;56.00;;;;;;4960097;28;20067;-76
2022/03/11 09:55:50;;;;;;;12.45;9.02;;;14.20;55.60;;;;;;4962938;28;20404;-75
2022/03/11 09:58:16;;;;;;;13.70;8.82;;;14.30;55.40;;;;;;4951872;28;20051;-76
2022/03/11 10:00:41;;;;;;;12.85;9.00;;;14.30;55.20;;;;;;4948057;28;20567;-77
2022/03/11 10:03:07;;;;;;;12.23;8.57;;;14.30;55.20;;;;;;4951227;28;20054;-81
2022/03/11 10:05:50;;;;;;;13.88;9.32;;;14.60;55.40;;;;;;4952005;28;20038;-74
2022/03/11 10:08:28;;;;;;;13.77;9.57;;;14.60;55.50;;;;;;4950841;28;20496;-75
2022/03/11 10:10:54;;;;;;;16.60;9.20;;;14.60;54.80;;;;;;4957409;28;20031;-77
2022/03/11 10:13:20;;;;;;;13.52;9.70;;;14.50;54.90;;;;;;4985321;28;20087;-77
2022/03/11 10:15:45;;;;;;;15.32;8.93;;;14.40;55.20;;;;;;4957214;28;20031;-78
2022/03/11 10:18:12;;;;;;;14.02;9.18;;;14.30;55.80;;;;;;4954730;28;20757;-77
2022/03/11 10:20:38;;;;;;;14.55;9.52;;;14.30;55.40;;;;;;4959464;28;21030;-79
2022/03/11 10:23:08;;;;;;;16.95;10.30;;;14.40;55.80;;;;;;4959949;28;20058;-77
2022/03/11 10:25:34;;;;;;;14.80;9.50;;;14.50;55.70;;;;;;4957371;28;20126;-77
2022/03/11 10:28:08;;;;;;;12.80;9.32;;;14.70;55.60;;;;;;4958375;28;20042;-77
2022/03/11 10:30:37;;;;;;;14.02;9.35;;;14.70;55.00;;;;;;4955947;28;20144;-79
2022/03/11 10:33:05;;;;;;;16.52;9.85;;;14.90;54.70;;;;;;4966620;28;25535;-77
2022/03/11 10:35:37;;;;;;;12.77;8.73;;;14.90;55.20;;;;;;4957641;28;20054;-79
2022/03/11 10:38:11;;;;;;;14.25;8.80;;;14.80;55.10;;;;;;4955672;28;20043;-78
2022/03/11 10:40:58;;;;;;;13.25;8.20;;;14.80;55.20;;;;;;4955302;28;20054;-76
2022/03/11 10:43:27;;;;;;;11.55;7.95;;;15.00;54.80;;;;;;4957792;28;20043;-77
2022/03/11 10:46:06;;;;;;;11.68;7.97;;;15.00;54.10;;;;;;4955258;28;20038;-76
2022/03/11 10:48:44;;;;;;;12.57;8.02;;;15.10;54.00;;;;;;4955930;28;20067;-77
2022/03/11 10:51:20;;;;;;;14.18;8.57;;;15.30;55.00;;;;;;4956758;28;20035;-75
2022/03/11 10:53:51;;;;;;;11.52;8.45;;;15.60;54.20;;;;;;4950225;28;20039;-76
2022/03/11 10:56:36;;;;;;;11.00;7.75;;;15.40;53.80;;;;;;4958895;28;20039;-76
2022/03/11 10:59:22;;;;;;;11.13;7.32;;;15.50;53.70;;;;;;4965777;28;20494;-78
2022/03/11 11:01:51;;;;;;;11.38;7.30;;;15.60;53.30;;;;;;4962058;28;20042;-73
2022/03/11 11:04:17;;;;;;;12.68;7.90;;;15.50;53.30;;;;;;4956848;28;20062;-77
2022/03/11 11:06:45;;;;;;;13.55;7.55;;;15.60;54.10;;;;;;4965862;28;20117;-76
2022/03/11 11:09:12;;;;;;;16.27;8.02;;;15.70;53.30;;;;;;4956737;28;20035;-75
2022/03/11 11:11:40;;;;;;;14.32;6.97;;;15.60;53.40;;;;;;4959458;28;20035;-77
2022/03/11 11:14:07;;;;;;;15.55;6.70;;;15.80;53.50;;;;;;4957432;28;20201;-75
2022/03/11 11:16:40;;;;;;;13.25;7.25;;;16.00;52.20;;;;;;4958037;28;20038;-80
2022/03/11 11:19:13;;;;;;;11.77;7.18;;;15.90;52.10;;;;;;4954841;28;20074;-75
2022/03/11 11:21:42;;;;;;;10.73;7.35;;;15.90;52.70;;;;;;4955947;28;20519;-77
2022/03/11 11:24:19;;;;;;;12.77;7.03;;;15.90;52.80;;;;;;4956373;28;20034;-76
2022/03/11 11:26:48;;;;;;;14.20;7.00;;;15.90;52.30;;;;;;4952952;28;20434;-76
2022/03/11 11:29:19;;;;;;;14.95;7.90;;;16.00;51.70;;;;;;4951033;28;20072;-76
2022/03/11 11:31:46;;;;;;;13.07;7.38;;;15.80;52.30;;;;;;4954575;28;20031;-76
2022/03/11 11:34:35;;;;;;;12.35;7.30;;;16.10;52.50;;;;;;4957276;28;20559;-76
2022/03/11 11:37:02;;;;;;;17.35;7.57;;;16.10;52.40;;;;;;4954761;28;20045;-76
2022/03/11 11:39:47;;;;;;;14.40;7.13;;;16.10;51.90;;;;;;4957739;28;20491;-77
2022/03/11 11:42:14;;;;;;;13.40;7.35;;;16.10;51.40;;;;;;4940214;28;20069;-78
2022/03/11 11:44:52;;;;;;;12.40;7.22;;;16.30;51.60;;;;;;4947383;28;20070;-77
2022/03/11 11:47:23;;;;;;;9.13;6.82;;;16.10;51.70;;;;;;4953731;28;20376;-76
2022/03/11 11:49:52;;;;;;;14.25;7.60;;;16.10;52.00;;;;;;4955653;28;20031;-76
2022/03/11 11:52:38;;;;;;;11.32;6.78;;;16.10;51.80;;;;;;4956000;28;20039;-76
2022/03/11 11:55:15;;;;;;;14.32;7.47;;;16.10;52.50;;;;;;4955750;28;20753;-77
2022/03/11 11:57:42;;;;;;;12.15;6.90;;;16.00;52.80;;;;;;4956921;28;20043;-77
2022/03/11 12:00:33;;;;;;;12.05;7.03;;;16.10;53.10;;;;;;4951968;28;20089;-77
2022/03/11 12:02:59;;;;;;;10.85;6.80;;;16.40;52.00;;;;;;4951370;28;20557;-75
2022/03/11 12:05:45;;;;;;;10.45;7.30;;;16.40;51.00;;;;;;4958556;28;20035;-75
2022/03/11 12:08:33;;;;;;;12.98;6.93;;;16.30;51.90;;;;;;4951912;28;20124;-75
2022/03/11 12:11:00;;;;;;;10.35;7.25;;;16.20;52.20;;;;;;4948356;28;20053;-74
2022/03/11 12:13:34;;;;;;;12.27;7.50;;;16.10;52.30;;;;;;4954404;28;20116;-77
2022/03/11 12:16:00;;;;;;;;;;;16.30;51.40;;;;;;4959153;28;20114;-75
2022/03/11 12:18:40;;;;;;;12.68;6.95;;;16.30;51.70;;;;;;4958685;28;19940;-75
2022/03/11 12:21:07;;;;;;;13.02;6.90;;;16.40;51.20;;;;;;4953489;28;20055;-75
2022/03/11 12:23:36;;;;;;;13.35;7.72;;;16.10;51.60;;;;;;4958034;28;20048;-76
2022/03/11 12:26:10;;;;;;;10.88;7.18;;;16.20;51.90;;;;;;4950945;28;20043;-80
2022/03/11 12:28:39;;;;;;;9.73;6.68;;;16.30;52.20;;;;;;4952285;28;20058;-76
2022/03/11 12:31:06;;;;;;;11.55;7.18;;;16.40;52.80;;;;;;4951117;28;20080;-76
2022/03/11 12:33:44;;;;;;;11.20;7.65;;;16.40;52.00;;;;;;4954823;28;20131;-74
2022/03/11 12:36:18;;;;;;;10.10;6.85;;;16.40;52.10;;;;;;4948610;28;20078;-77
2022/03/11 12:38:46;;;;;;;12.20;7.68;;;16.20;52.30;;;;;;4958988;28;20039;-76